createdAt,value
2023-02-04T00:00:51.165Z,5.92
2023-02-04T00:04:16.342Z,5.87
2023-02-04T00:07:41.630Z,5.84
2023-02-04T00:11:06.794Z,5.85
2023-02-04T00:14:31.930Z,5.82
2023-02-04T00:17:57.114Z,5.8
2023-02-04T00:21:22.341Z,5.8
2023-02-04T00:24:47.541Z,5.8
2023-02-04T00:28:12.773Z,5.79
2023-02-04T00:31:38.061Z,5.79
2023-02-04T00:35:03.101Z,5.77
2023-02-04T00:38:28.284Z,5.77
2023-02-04T00:41:53.479Z,5.75
2023-02-04T00:45:18.690Z,5.74
2023-02-04T00:48:43.841Z,5.74
2023-02-04T00:52:09.040Z,5.72
2023-02-04T00:55:34.254Z,5.67
2023-02-04T00:58:59.448Z,5.64
2023-02-04T01:02:24.642Z,5.63
2023-02-04T01:05:49.805Z,5.6
2023-02-04T01:09:14.997Z,5.6
2023-02-04T01:12:40.226Z,5.59
2023-02-04T01:16:05.401Z,5.58
2023-02-04T01:19:30.552Z,5.58
2023-02-04T01:22:55.700Z,5.58
2023-02-04T01:26:20.942Z,5.58
2023-02-04T01:29:46.173Z,5.59
2023-02-04T01:33:11.341Z,5.58
2023-02-04T01:36:36.565Z,5.56
2023-02-04T01:40:01.776Z,5.52
2023-02-04T01:43:26.973Z,5.5
2023-02-04T01:46:52.160Z,5.44
2023-02-04T01:50:17.378Z,5.4
2023-02-04T01:53:42.556Z,5.36
2023-02-04T01:57:07.739Z,5.32
2023-02-04T02:00:33.495Z,5.29
2023-02-04T02:03:58.140Z,5.24
2023-02-04T02:07:23.345Z,5.21
2023-02-04T02:10:48.540Z,5.18
2023-02-04T02:14:13.713Z,5.15
2023-02-04T02:17:38.940Z,5.14
2023-02-04T02:21:04.128Z,5.13
2023-02-04T02:24:29.340Z,5.14
2023-02-04T02:27:54.539Z,5.17
2023-02-04T02:31:19.835Z,5.19
2023-02-04T02:34:44.896Z,5.15
2023-02-04T02:38:10.072Z,4.89
2023-02-04T02:41:35.272Z,4.63
2023-02-04T02:45:00.475Z,4.4
2023-02-04T02:48:25.653Z,4.12
2023-02-04T02:51:50.874Z,3.96
2023-02-04T02:55:16.077Z,3.8
2023-02-04T02:58:41.265Z,3.7
2023-02-04T03:02:06.489Z,3.64
2023-02-04T03:05:31.631Z,3.56
2023-02-04T03:08:56.853Z,3.53
2023-02-04T03:12:22.038Z,3.49
2023-02-04T03:15:47.288Z,3.45
2023-02-04T03:19:12.492Z,3.43
2023-02-04T03:22:37.881Z,3.39
2023-02-04T03:26:03.084Z,3.39
2023-02-04T03:29:29.774Z,3.42
2023-02-04T03:32:53.507Z,3.44
2023-02-04T03:36:18.698Z,3.4
2023-02-04T03:39:43.872Z,3.41
2023-02-04T03:43:09.057Z,3.43
2023-02-04T03:46:34.336Z,3.37
2023-02-04T03:49:59.442Z,3.37
2023-02-04T03:53:24.629Z,3.42
2023-02-04T03:56:49.790Z,3.5
2023-02-04T04:00:14.977Z,3.52
2023-02-04T04:03:40.284Z,3.53
2023-02-04T04:07:05.472Z,3.51
2023-02-04T04:10:31.021Z,3.54
2023-02-04T04:13:55.839Z,3.58
2023-02-04T04:17:21.055Z,3.64
2023-02-04T04:20:46.244Z,3.71
2023-02-04T04:24:11.425Z,3.71
2023-02-04T04:27:36.631Z,3.75
2023-02-04T04:31:01.863Z,3.74
2023-02-04T04:34:26.967Z,3.72
2023-02-04T04:37:52.128Z,3.74
2023-02-04T04:41:17.319Z,3.76
2023-02-04T04:44:42.567Z,3.77
2023-02-04T04:48:07.769Z,3.78
2023-02-04T04:51:32.987Z,3.71
2023-02-04T04:54:58.198Z,3.66
2023-02-04T04:58:23.403Z,3.67
2023-02-04T05:01:48.638Z,3.64
2023-02-04T05:05:13.834Z,3.65
2023-02-04T05:08:39.083Z,3.65
2023-02-04T05:12:04.324Z,3.62
2023-02-04T05:15:29.500Z,3.55
2023-02-04T05:18:54.757Z,3.48
2023-02-04T05:22:19.931Z,3.42
2023-02-04T05:25:45.139Z,3.33
2023-02-04T05:29:10.744Z,3.26
2023-02-04T05:32:35.593Z,3.21
2023-02-04T05:36:00.857Z,3.2
2023-02-04T05:39:26.044Z,3.2
2023-02-04T05:42:51.270Z,3.16
2023-02-04T05:46:16.534Z,3.14
2023-02-04T05:49:41.761Z,3.11
2023-02-04T05:53:07.036Z,3.12
2023-02-04T05:56:32.156Z,3.16
2023-02-04T05:59:57.348Z,3.2
2023-02-04T06:03:22.573Z,3.25
2023-02-04T06:06:47.716Z,3.26
2023-02-04T06:10:12.972Z,3.33
2023-02-04T06:13:38.136Z,3.37
2023-02-04T06:17:03.346Z,3.44
2023-02-04T06:20:28.560Z,3.54
2023-02-04T06:23:53.773Z,3.62
2023-02-04T06:27:18.986Z,3.63
2023-02-04T06:30:44.310Z,3.62
2023-02-04T06:34:09.338Z,3.58
2023-02-04T06:37:34.522Z,3.54
2023-02-04T06:40:59.716Z,3.48
2023-02-04T06:44:24.939Z,3.42
2023-02-04T06:47:50.110Z,3.4
2023-02-04T06:51:15.279Z,3.37
2023-02-04T06:54:40.526Z,3.34
2023-02-04T06:58:05.754Z,3.34
2023-02-04T07:01:31.014Z,3.41
2023-02-04T07:04:56.165Z,3.46
2023-02-04T07:08:21.396Z,3.55
2023-02-04T07:11:46.592Z,3.59
2023-02-04T07:15:11.784Z,3.65
2023-02-04T07:18:37.002Z,3.69
2023-02-04T07:22:02.175Z,3.74
2023-02-04T07:25:27.357Z,3.73
2023-02-04T07:28:52.547Z,3.76
2023-02-04T07:32:17.743Z,3.75
2023-02-04T07:35:43.013Z,3.75
2023-02-04T07:39:08.207Z,3.69
2023-02-04T07:42:33.611Z,3.68
2023-02-04T07:45:58.908Z,3.79
2023-02-04T07:49:24.096Z,3.89
2023-02-04T07:52:49.300Z,3.88
2023-02-04T07:56:14.458Z,3.84
2023-02-04T07:59:39.647Z,3.86
2023-02-04T08:03:04.947Z,3.81
2023-02-04T08:06:30.033Z,3.82
2023-02-04T08:09:55.287Z,3.9
2023-02-04T08:13:20.492Z,3.9
2023-02-04T08:16:45.663Z,3.88
2023-02-04T08:20:10.859Z,3.84
2023-02-04T08:23:36.088Z,3.81
2023-02-04T08:27:01.343Z,3.82
2023-02-04T08:30:26.615Z,3.83
2023-02-04T08:33:51.677Z,3.87
2023-02-04T08:37:16.911Z,3.98
2023-02-04T08:40:42.142Z,4.03
2023-02-04T08:44:07.383Z,4.08
2023-02-04T08:47:32.599Z,4.23
2023-02-04T08:50:57.844Z,4.26
2023-02-04T08:54:23.089Z,4.3
2023-02-04T08:57:48.313Z,4.38
2023-02-04T09:01:13.603Z,4.47
2023-02-04T09:04:38.744Z,4.54
2023-02-04T09:08:04.043Z,4.56
2023-02-04T09:11:29.223Z,4.6
2023-02-04T09:14:57.326Z,4.62
2023-02-04T09:18:22.547Z,4.6
2023-02-04T09:21:47.678Z,4.6
2023-02-04T09:25:12.885Z,4.64
2023-02-04T09:28:38.251Z,4.7
2023-02-04T09:32:03.564Z,4.71
2023-02-04T09:35:28.730Z,4.67
2023-02-04T09:38:53.915Z,4.65
2023-02-04T09:42:19.109Z,4.66
2023-02-04T09:45:44.417Z,4.71
2023-02-04T09:49:09.537Z,4.78
2023-02-04T09:52:34.812Z,4.85
2023-02-04T09:55:59.965Z,4.88
2023-02-04T09:59:25.173Z,4.92
2023-02-04T10:02:50.380Z,4.88
2023-02-04T10:06:15.565Z,4.84
2023-02-04T10:09:40.810Z,4.89
2023-02-04T10:13:05.974Z,4.95
2023-02-04T10:16:31.167Z,5.06
2023-02-04T10:19:56.361Z,5.03
2023-02-04T10:23:21.569Z,4.93
2023-02-04T10:26:46.850Z,4.94
2023-02-04T10:30:12.035Z,5.01
2023-02-04T10:33:37.226Z,5.1
2023-02-04T10:37:02.408Z,5.11
2023-02-04T10:40:27.594Z,5.09
2023-02-04T10:43:52.805Z,5.12
2023-02-04T10:47:18.033Z,5.17
2023-02-04T10:50:43.316Z,5.21
2023-02-04T10:54:08.534Z,5.25
2023-02-04T10:57:33.751Z,5.31
2023-02-04T11:00:59.103Z,5.37
2023-02-04T11:04:24.197Z,5.42
2023-02-04T11:07:49.485Z,5.41
2023-02-04T11:11:14.670Z,5.52
2023-02-04T11:14:39.875Z,5.58
2023-02-04T11:18:05.212Z,5.66
2023-02-04T11:21:30.354Z,5.85
2023-02-04T11:24:55.559Z,5.96
2023-02-04T11:28:20.821Z,5.89
2023-02-04T11:31:46.179Z,5.92
2023-02-04T11:35:11.367Z,5.95
2023-02-04T11:38:36.541Z,5.99
2023-02-04T11:42:01.775Z,6.06
2023-02-04T11:45:27.003Z,6.23
2023-02-04T11:48:52.172Z,6.46
2023-02-04T11:52:17.386Z,6.67
2023-02-04T11:55:42.515Z,6.67
2023-02-04T11:59:07.711Z,6.61
2023-02-04T12:02:32.927Z,6.46
2023-02-04T12:05:58.133Z,6.35
2023-02-04T12:09:23.347Z,6.19
2023-02-04T12:12:48.511Z,6.08
2023-02-04T12:16:13.828Z,6
2023-02-04T12:19:38.942Z,5.89
2023-02-04T12:23:04.171Z,5.82
2023-02-04T12:26:29.401Z,5.98
2023-02-04T12:29:54.558Z,6.18
2023-02-04T12:33:19.803Z,6.39
2023-02-04T12:36:45.058Z,6.51
2023-02-04T12:40:10.227Z,6.66
2023-02-04T12:43:35.433Z,6.84
2023-02-04T12:47:00.696Z,6.98
2023-02-04T12:50:25.825Z,6.92
2023-02-04T12:53:51.018Z,6.76
2023-02-04T12:57:16.178Z,6.64
2023-02-04T13:00:41.414Z,6.56
2023-02-04T13:04:06.522Z,6.45
2023-02-04T13:07:31.749Z,6.36
2023-02-04T13:10:56.946Z,6.27
2023-02-04T13:14:22.166Z,6.24
2023-02-04T13:17:47.419Z,6.23
2023-02-04T13:21:12.577Z,6.26
2023-02-04T13:24:37.800Z,6.34
2023-02-04T13:28:03.018Z,6.36
2023-02-04T13:31:28.250Z,6.35
2023-02-04T13:34:53.403Z,6.36
2023-02-04T13:38:18.625Z,6.33
2023-02-04T13:41:43.818Z,6.33
2023-02-04T13:45:09.043Z,6.31
2023-02-04T13:48:36.370Z,6.3
2023-02-04T13:51:59.512Z,6.3
2023-02-04T13:55:24.675Z,6.29
2023-02-04T13:58:49.902Z,6.29
2023-02-04T14:02:15.181Z,6.32
2023-02-04T14:05:40.306Z,6.39
2023-02-04T14:09:05.584Z,6.43
2023-02-04T14:12:30.742Z,6.39
2023-02-04T14:15:55.891Z,6.25
2023-02-04T14:19:21.094Z,6.19
2023-02-04T14:22:46.331Z,6.16
2023-02-04T14:26:11.569Z,6.06
2023-02-04T14:29:36.796Z,5.98
2023-02-04T15:04:25.200Z,3.4
2023-02-04T15:07:50.362Z,4.42
2023-02-04T15:11:15.545Z,4.67
2023-02-04T15:14:40.752Z,4.88
2023-02-04T15:18:05.968Z,5.07
2023-02-04T15:21:31.163Z,5.22
2023-02-04T15:24:56.349Z,5.31
2023-02-04T15:28:21.621Z,5.39
2023-02-04T15:31:46.884Z,5.49
2023-02-04T15:35:11.977Z,5.53
2023-02-04T15:38:37.410Z,5.58
2023-02-04T15:42:02.612Z,5.59
2023-02-04T15:45:27.868Z,5.61
2023-02-04T15:48:53.040Z,5.63
2023-02-04T15:52:24.372Z,5.65
2023-02-04T15:55:43.459Z,5.65
2023-02-04T15:59:08.617Z,5.65
2023-02-04T16:02:33.867Z,5.64
2023-02-04T16:05:58.981Z,5.59
2023-02-04T16:09:24.180Z,5.58
2023-02-04T16:12:49.759Z,5.56
2023-02-04T16:16:15.069Z,5.56
2023-02-04T16:19:40.139Z,5.55
2023-02-04T16:23:05.329Z,5.52
2023-02-04T16:26:30.524Z,5.47
2023-02-04T16:29:56.864Z,5.46
2023-02-04T16:33:20.883Z,5.43
2023-02-04T16:36:46.050Z,5.44
2023-02-04T16:40:11.229Z,5.46
2023-02-04T16:43:38.554Z,5.45
2023-02-04T16:47:03.751Z,5.4
2023-02-04T16:50:28.904Z,5.35
2023-02-04T16:53:54.103Z,5.32
2023-02-04T16:57:19.296Z,5.34
2023-02-04T17:00:44.476Z,5.35
2023-02-04T17:04:09.659Z,5.36
2023-02-04T17:07:34.821Z,5.32
2023-02-04T17:11:00.053Z,5.27
2023-02-04T17:14:25.300Z,5.21
2023-02-04T17:17:50.513Z,5.17
2023-02-04T17:21:15.756Z,5.15
2023-02-04T17:24:40.941Z,5.04
2023-02-04T17:28:06.281Z,4.94
2023-02-04T17:31:31.368Z,4.89
2023-02-04T17:34:56.593Z,4.81
2023-02-04T17:38:21.829Z,4.79
2023-02-04T17:41:47.038Z,4.76
2023-02-04T17:45:12.332Z,4.75
2023-02-04T17:48:37.576Z,4.76
2023-02-04T17:52:02.813Z,4.77
2023-02-04T17:55:28.124Z,4.76
2023-02-04T17:58:53.326Z,4.71
2023-02-04T18:02:18.624Z,4.65
2023-02-04T18:05:43.766Z,4.62
2023-02-04T18:09:08.983Z,4.5
2023-02-04T18:12:34.238Z,4.36
2023-02-04T18:15:59.503Z,4.22
2023-02-04T18:19:24.648Z,4.13
2023-02-04T18:22:49.897Z,4.12
2023-02-04T18:26:15.900Z,4.09
2023-02-04T18:29:40.348Z,4.05
2023-02-04T18:33:05.498Z,4.02
2023-02-04T18:36:30.726Z,4.01
2023-02-04T18:39:55.969Z,4.01
2023-02-04T18:43:21.169Z,3.98
2023-02-04T18:46:46.402Z,3.98
2023-02-04T18:50:11.585Z,3.96
2023-02-04T18:53:36.786Z,3.89
2023-02-04T18:57:02.004Z,3.84
2023-02-04T19:00:27.230Z,3.87
2023-02-04T19:03:52.491Z,3.91
2023-02-04T19:07:17.643Z,3.98
2023-02-04T19:10:42.902Z,4.03
2023-02-04T19:14:08.121Z,4.05
2023-02-04T19:17:33.304Z,4.05
2023-02-04T19:20:58.511Z,4.02
2023-02-04T19:24:23.689Z,3.98
2023-02-04T19:27:48.875Z,3.97
2023-02-04T19:31:14.087Z,3.94
2023-02-04T19:34:39.280Z,3.91
2023-02-04T19:38:04.505Z,3.85
2023-02-04T19:41:29.732Z,3.78
2023-02-04T19:44:54.912Z,3.7
2023-02-04T19:48:20.138Z,3.66
2023-02-04T19:51:45.345Z,3.61
2023-02-04T19:55:10.581Z,3.58
2023-02-04T19:58:36.493Z,3.55
2023-02-04T20:02:01.000Z,3.53
2023-02-04T20:05:26.209Z,3.52
2023-02-04T20:08:51.402Z,3.47
2023-02-04T20:12:16.635Z,3.45
2023-02-04T20:15:41.821Z,3.49
2023-02-04T20:19:07.015Z,3.49
2023-02-04T20:22:32.230Z,3.44
2023-02-04T20:25:57.445Z,3.44
2023-02-04T20:29:23.063Z,3.43
2023-02-04T20:32:48.284Z,3.4
2023-02-04T20:36:14.224Z,3.45
2023-02-04T20:39:39.453Z,3.45
2023-02-04T20:43:04.638Z,3.44
2023-02-04T20:46:29.937Z,3.42
2023-02-04T20:49:55.159Z,3.41
2023-02-04T20:53:20.267Z,3.4
2023-02-04T20:56:45.489Z,3.39
2023-02-04T21:00:10.699Z,3.38
2023-02-04T21:03:35.911Z,3.4
2023-02-04T21:07:01.073Z,3.36
2023-02-04T21:10:26.272Z,3.28
2023-02-04T21:13:51.440Z,3.26
2023-02-04T21:17:16.688Z,3.26
2023-02-04T21:20:41.930Z,3.27
2023-02-04T21:24:07.107Z,3.28
2023-02-04T21:27:32.316Z,3.31
2023-02-04T21:30:57.610Z,3.27
2023-02-04T21:34:22.714Z,3.22
2023-02-04T21:37:47.966Z,3.17
2023-02-04T21:41:13.208Z,3.1
2023-02-04T21:44:38.426Z,3.03
2023-02-04T21:48:03.652Z,2.93
2023-02-04T21:51:28.899Z,2.8
2023-02-04T21:54:54.126Z,2.69
2023-02-04T21:58:19.306Z,2.59
2023-02-04T22:01:44.531Z,2.49
2023-02-04T22:05:09.705Z,2.41
2023-02-04T22:08:34.927Z,2.38
2023-02-04T22:12:00.145Z,2.41
2023-02-04T22:15:25.312Z,2.38
2023-02-04T22:18:50.527Z,2.35
2023-02-04T22:22:15.712Z,2.33
2023-02-04T22:25:40.928Z,2.3
2023-02-04T22:29:06.165Z,2.28
2023-02-04T22:32:31.322Z,2.28
2023-02-04T22:35:56.521Z,2.28
2023-02-04T22:39:21.692Z,2.26
2023-02-04T22:42:46.892Z,2.26
2023-02-04T22:46:12.135Z,2.26
2023-02-04T22:49:37.269Z,2.24
2023-02-04T22:53:02.439Z,2.22
2023-02-04T22:56:27.633Z,2.2
2023-02-04T22:59:52.811Z,2.21
2023-02-04T23:03:18.037Z,2.23
2023-02-04T23:06:43.207Z,2.23
2023-02-04T23:10:08.424Z,2.22
2023-02-04T23:13:33.694Z,2.18
2023-02-04T23:16:58.807Z,2.09
2023-02-04T23:20:25.099Z,2.08
2023-02-04T23:23:50.280Z,2.06
2023-02-04T23:27:15.466Z,2.03
2023-02-04T23:30:40.649Z,2.02
2023-02-04T23:34:05.851Z,2
2023-02-04T23:37:31.060Z,1.97
2023-02-04T23:40:56.243Z,1.89
2023-02-04T23:44:21.408Z,1.77
2023-02-04T23:47:46.590Z,1.62
2023-02-04T23:51:11.769Z,1.56
2023-02-04T23:54:36.961Z,1.52
2023-02-04T23:58:02.120Z,1.44
